Banksville, New York
Current Conditions -  °F | °C
As of 7:56 AM on Wednesday 22 Oct 2014 (Local Time) from KHPN Reporting Station
Light Rain Light Rain  
Wind Chill: 12°   Ceiling: 3300
Heat Index: 12°   Visibility: 10mi
Dew Point:   Wind: 8mph
Humidity: 86%   Direction: 10°N
Pressure: 29.93"   Gusts: 17mph
Location:  41.191°N, 73.6333°W
Report Text: KHPN 221156Z 01007G15KT 10SM -RA SCT013 BKN033 OVC065 12/09 A2993 RMK AO2 RAB20 SLP134 P0000 60007 70007 T01170094 10133 20117 51011
Loading
Personal Weather Stations






























Interactive Weather Map
Tropical Storm Tracking
New forecast layout! Learn more

10-Day Weather Forecast

Advertisements
Track Severe Weather on mobile